Time;durP1;ratioP1;P1;durP2;ratioP2;P2;SDS_P1;SDS_P2;PMS_P1;PMS_P2;Temp;Humidity;BMP_temperature;BMP_pressure;BME280_temperature;BME280_humidity;BME280_pressure;Samples;Min_cycle;Max_cycle;Signal;HPM_P1;HPM_P2
2021/01/13 00:00:24;;;;;;;11.79;4.36;;;1.50;99.90;;;6.35;85.09;101604.99;1704327;74;24509;-77
2021/01/13 00:02:43;;;;;;;9.66;4.33;;;1.50;99.90;;;6.42;85.06;101600.95;1697900;74;24598;-77
2021/01/13 00:05:04;;;;;;;9.68;4.33;;;1.50;99.90;;;6.42;85.14;101599.66;1698607;74;24440;-78
2021/01/13 00:07:20;;;;;;;9.15;4.52;;;1.50;99.90;;;6.45;85.21;101598.04;1703045;74;24501;-78
2021/01/13 00:09:44;;;;;;;10.97;4.46;;;1.50;99.90;;;6.48;85.00;101592.98;1702379;74;24905;-76
2021/01/13 00:12:01;;;;;;;10.67;4.02;;;1.50;99.90;;;6.35;84.71;101595.94;1702571;74;24870;-76
2021/01/13 00:14:19;;;;;;;12.52;4.68;;;1.50;99.90;;;6.39;84.96;101590.05;1700150;74;24454;-77
2021/01/13 00:16:35;;;;;;;11.67;4.07;;;1.50;99.90;;;6.40;85.04;101585.37;1700487;74;24532;-78
2021/01/13 00:18:54;;;;;;;12.84;3.76;;;1.50;99.90;;;6.34;85.05;101595.87;1701316;75;24468;-77
2021/01/13 00:21:16;;;;;;;10.39;3.86;;;1.50;99.90;;;6.34;84.87;101594.59;1711063;74;24421;-77
2021/01/13 00:23:33;;;;;;;10.95;3.81;;;1.50;99.90;;;6.32;84.97;101594.93;1697202;74;24484;-77
2021/01/13 00:25:50;;;;;;;6.75;3.25;;;1.50;99.90;;;6.36;85.04;101591.23;1701335;74;24412;-78
2021/01/13 00:28:11;;;;;;;12.69;4.28;;;1.50;99.90;;;6.42;84.98;101586.72;1701135;74;24412;-77
2021/01/13 00:30:27;;;;;;;8.59;2.87;;;1.50;99.90;;;6.55;85.41;101584.65;1699404;74;24505;-76
2021/01/13 00:32:46;;;;;;;12.74;3.99;;;1.60;99.90;;;6.43;84.89;101575.53;1702876;74;24506;-77
2021/01/13 00:35:08;;;;;;;14.72;3.85;;;1.60;99.90;;;6.51;85.06;101576.72;1696737;74;24493;-77
2021/01/13 00:37:24;;;;;;;11.80;3.68;;;1.60;99.90;;;6.53;85.15;101583.70;1702160;74;24407;-77
2021/01/13 00:39:44;;;;;;;10.53;4.17;;;1.60;99.90;;;6.46;84.96;101584.70;1698685;74;24523;-77
2021/01/13 00:42:02;;;;;;;11.99;4.52;;;1.60;99.90;;;6.43;84.88;101582.90;1699755;74;24435;-77
2021/01/13 00:44:33;;;;;;;9.46;3.96;;;1.60;99.90;;;6.43;85.24;101585.89;1696944;75;24952;-77
2021/01/13 00:46:50;;;;;;;10.96;4.25;;;1.60;99.90;;;6.51;85.08;101584.08;1699435;74;24501;-77
2021/01/13 00:49:11;;;;;;;11.50;3.99;;;1.60;99.90;;;6.51;85.29;101581.89;1699424;74;24478;-77
2021/01/13 00:51:35;;;;;;;11.88;4.26;;;1.60;99.90;;;6.56;84.77;101569.58;1701197;75;24460;-77
2021/01/13 00:53:52;;;;;;;8.82;3.96;;;1.60;99.90;;;6.60;85.06;101569.30;1696859;74;24889;-75
2021/01/13 00:56:09;;;;;;;10.42;4.04;;;1.60;99.90;;;6.68;84.98;101579.52;1700645;75;24407;-77
2021/01/13 00:58:26;;;;;;;13.14;4.25;;;1.70;99.90;;;6.63;84.83;101568.11;1705719;74;24504;-76
2021/01/13 01:00:43;;;;;;;11.08;4.10;;;1.70;99.90;;;6.69;84.79;101577.39;1704187;74;24421;-78
2021/01/13 01:03:00;;;;;;;9.50;3.70;;;1.70;99.90;;;6.70;84.79;101570.13;1710697;74;24402;-78
2021/01/13 01:05:19;;;;;;;13.20;3.83;;;1.80;99.90;;;6.83;84.73;101565.87;1702173;74;25923;-76
2021/01/13 01:07:41;;;;;;;10.83;3.79;;;1.80;99.90;;;7.01;84.55;101566.53;1698353;74;24869;-77
2021/01/13 01:09:57;;;;;;;9.09;3.50;;;1.90;99.90;;;7.07;83.87;101571.92;1698521;74;24444;-77
2021/01/13 01:12:14;;;;;;;10.37;3.68;;;2.10;99.90;;;7.14;83.61;101585.58;1692915;75;24459;-76
2021/01/13 01:14:30;;;;;;;10.10;3.70;;;2.10;99.90;;;6.95;84.20;101572.78;1698609;74;24643;-78
2021/01/13 01:16:46;;;;;;;8.21;3.33;;;2.20;99.90;;;6.75;84.75;101572.47;1702664;74;24517;-76
2021/01/13 01:19:04;;;;;;;10.67;3.70;;;2.20;99.90;;;6.65;85.59;101570.36;1704566;74;24419;-76
2021/01/13 01:21:19;;;;;;;8.78;3.98;;;2.20;99.90;;;6.70;85.70;101572.27;1701690;74;25642;-76
2021/01/13 01:23:35;;;;;;;13.22;3.80;;;2.20;99.90;;;6.70;85.79;101571.42;1698245;74;24444;-77
2021/01/13 01:25:51;;;;;;;11.28;4.01;;;2.20;99.90;;;6.71;85.63;101585.70;1694570;74;24906;-78
2021/01/13 01:28:09;;;;;;;12.01;3.29;;;2.20;99.90;;;6.59;85.92;101598.59;1704414;74;24514;-76
2021/01/13 01:30:29;;;;;;;8.74;3.69;;;2.20;99.90;;;6.40;87.07;101597.41;1701199;75;24572;-77
2021/01/13 01:32:45;;;;;;;9.06;3.87;;;2.20;99.90;;;6.58;86.79;101597.70;1703237;74;24501;-77
2021/01/13 01:35:01;;;;;;;15.42;4.10;;;2.20;99.90;;;6.63;86.47;101601.75;1702826;74;24631;-77
2021/01/13 01:37:17;;;;;;;7.84;3.55;;;2.20;99.90;;;6.81;85.84;101596.84;1699266;74;24411;-77
2021/01/13 01:39:33;;;;;;;9.19;3.98;;;2.20;99.90;;;6.92;85.31;101586.91;1705068;74;24491;-77
2021/01/13 01:41:50;;;;;;;11.78;3.78;;;2.20;99.90;;;6.88;85.32;101578.15;1705991;74;24503;-77
2021/01/13 01:44:07;;;;;;;10.18;3.57;;;2.30;99.90;;;7.00;85.61;101594.12;1701847;74;24422;-77
2021/01/13 01:46:26;;;;;;;10.01;3.54;;;2.30;99.90;;;7.03;85.65;101594.26;1696591;74;24585;-76
2021/01/13 01:48:57;;;;;;;10.06;3.84;;;2.40;99.90;;;6.92;85.83;101599.86;1698201;74;24473;-78
2021/01/13 01:51:19;;;;;;;10.17;3.48;;;2.40;99.90;;;6.88;85.97;101597.56;1704493;74;24465;-78
2021/01/13 01:54:15;;;;;;;5.28;2.35;;;2.40;99.90;;;6.67;86.90;101594.16;1697537;75;24438;-77
2021/01/13 01:56:40;;;;;;;9.83;3.21;;;2.40;99.90;;;6.54;87.63;101588.47;1697863;74;24434;-77
2021/01/13 01:59:09;;;;;;;8.06;3.10;;;2.30;99.90;;;6.69;87.47;101585.16;1698981;75;24411;-77
2021/01/13 02:01:51;;;;;;;8.59;3.53;;;2.30;99.90;;;6.73;87.02;101594.41;1701185;74;24451;-77
2021/01/13 02:04:16;;;;;;;7.53;3.01;;;2.20;99.90;;;6.73;86.83;101597.00;1697005;74;24488;-77
2021/01/13 02:06:39;;;;;;;9.34;3.10;;;2.20;99.90;;;6.69;86.71;101601.58;1704755;74;24420;-77
2021/01/13 02:08:56;;;;;;;9.26;3.38;;;2.20;99.90;;;6.87;86.12;101603.58;1702005;74;24464;-78
2021/01/13 02:11:19;;;;;;;12.57;3.25;;;2.20;99.90;;;7.01;85.61;101598.89;1715490;74;24453;-77
2021/01/13 02:13:37;;;;;;;10.16;3.04;;;2.20;99.90;;;7.04;85.19;101596.02;1710244;74;24410;-77
2021/01/13 02:15:56;;;;;;;11.70;3.05;;;2.20;99.90;;;6.94;84.84;101593.90;1714526;74;24499;-78
2021/01/13 02:18:21;;;;;;;8.67;2.57;;;2.20;99.90;;;6.80;84.92;101596.80;1713553;74;24429;-76
2021/01/13 02:20:44;;;;;;;12.32;3.16;;;2.20;99.90;;;6.69;85.01;101605.45;1716921;74;24445;-76
2021/01/13 02:23:09;;;;;;;6.49;3.09;;;2.10;99.90;;;6.81;85.01;101599.87;1719038;73;24433;-75
2021/01/13 02:26:41;;;;;;;9.25;2.73;;;2.10;99.90;;;6.62;84.43;101595.72;1715154;74;24497;-76
2021/01/13 02:29:13;;;;;;;7.82;1.94;;;2.00;99.90;;;6.76;84.87;101600.11;1712660;74;24445;-77
2021/01/13 02:31:53;;;;;;;9.67;3.16;;;2.00;99.90;;;6.73;84.49;101592.23;1712550;74;24480;-76
2021/01/13 02:34:50;;;;;;;9.59;2.77;;;2.00;99.90;;;6.78;84.44;101592.86;1712120;74;24838;-76
2021/01/13 02:37:43;;;;;;;7.10;2.81;;;1.90;99.90;;;6.79;84.17;101596.34;1714417;74;24426;-78
2021/01/13 02:40:07;;;;;;;8.48;3.07;;;1.90;99.90;;;6.83;84.19;101599.09;1713420;75;24576;-78
2021/01/13 02:42:36;;;;;;;10.09;3.31;;;1.90;99.90;;;6.90;83.96;101598.51;1676714;75;24569;-76
2021/01/13 02:45:17;;;;;;;12.61;3.50;;;1.90;99.90;;;6.91;84.23;101608.03;1714523;74;24554;-77
2021/01/13 02:48:14;;;;;;;7.19;2.74;;;1.90;99.90;;;6.93;83.97;101607.68;1713084;74;24477;-77
2021/01/13 02:50:33;;;;;;;7.97;2.97;;;2.00;99.90;;;7.13;84.09;101611.88;1719856;74;24471;-78
2021/01/13 02:53:06;;;;;;;8.86;2.93;;;2.10;99.90;;;7.19;83.65;101615.11;1713198;74;24427;-77
2021/01/13 02:55:30;;;;;;;7.41;3.06;;;2.30;99.90;;;7.30;83.31;101609.47;1715414;73;24481;-77
2021/01/13 02:57:50;;;;;;;9.78;3.69;;;2.40;99.90;;;7.29;83.60;101608.12;1713166;73;24421;-77
2021/01/13 03:00:14;;;;;;;7.96;3.07;;;2.50;99.90;;;7.24;83.45;101609.69;1723661;74;24469;-77
2021/01/13 03:02:41;;;;;;;9.97;3.41;;;2.60;99.90;;;7.27;84.23;101622.75;1714986;74;24553;-77
2021/01/13 03:05:00;;;;;;;9.46;3.42;;;2.60;99.90;;;7.32;83.96;101596.16;1713039;75;24433;-77
2021/01/13 03:23:11;;;;;;;8.50;3.17;;;2.60;99.90;;;7.50;85.07;101610.19;1741236;72;25364;-77
2021/01/13 03:25:31;;;;;;;9.95;3.28;;;2.50;99.90;;;7.32;85.64;101620.77;1726012;73;24544;-76
2021/01/13 03:27:49;;;;;;;9.24;3.40;;;2.50;99.90;;;7.30;85.30;101618.97;1728160;73;24415;-77
2021/01/13 03:30:18;;;;;;;9.11;3.02;;;2.50;99.90;;;7.53;84.92;101624.54;1722861;73;24434;-77
2021/01/13 03:33:01;;;;;;;6.97;2.89;;;2.60;99.90;;;7.51;84.75;101606.34;1727089;73;24413;-76
2021/01/13 03:35:20;;;;;;;9.44;3.24;;;2.60;99.90;;;7.37;85.01;101607.58;1723409;73;24448;-78
2021/01/13 03:38:02;;;;;;;8.65;3.59;;;2.70;99.90;;;7.56;85.11;101600.02;1727582;73;24475;-80
2021/01/13 03:40:23;;;;;;;6.60;3.02;;;2.80;99.90;;;7.60;85.04;101603.20;1720151;73;24412;-76
2021/01/13 03:42:45;;;;;;;10.60;3.30;;;2.80;99.90;;;7.61;85.02;101618.80;1719724;73;24411;-76
2021/01/13 03:45:07;;;;;;;6.30;2.01;;;2.90;99.90;;;7.60;85.18;101612.28;1755849;72;24443;-76
2021/01/13 03:48:09;;;;;;;5.75;2.44;;;3.00;99.90;;;7.58;85.26;101619.11;1753473;72;24474;-77
2021/01/13 03:50:39;;;;;;;9.98;2.93;;;3.10;99.90;;;7.61;85.55;101617.52;1751159;72;24494;-77
2021/01/13 03:53:05;;;;;;;8.14;3.16;;;3.10;99.90;;;7.63;85.86;101605.91;1758054;72;24418;-79
2021/01/13 03:55:24;;;;;;;6.57;2.68;;;3.20;99.90;;;7.63;85.78;101600.72;1751292;72;24525;-79
2021/01/13 03:57:54;;;;;;;6.36;2.42;;;3.20;99.90;;;7.59;85.68;101607.50;1750546;72;24440;-78
2021/01/13 04:00:16;;;;;;;9.57;2.60;;;3.20;99.90;;;7.43;86.64;101628.92;1746518;73;24436;-75
2021/01/13 04:02:40;;;;;;;7.63;3.10;;;3.30;99.90;;;7.60;86.47;101606.66;1756448;72;24522;-78
2021/01/13 04:05:30;;;;;;;12.91;3.40;;;3.20;99.90;;;7.63;86.22;101607.20;1753202;72;24518;-77
2021/01/13 04:07:49;;;;;;;8.77;2.60;;;3.20;99.90;;;7.66;86.12;101602.11;1753246;72;24891;-78
2021/01/13 04:10:10;;;;;;;5.45;2.39;;;3.20;99.90;;;7.74;85.85;101601.52;1749833;73;24443;-77
2021/01/13 04:12:33;;;;;;;7.53;2.33;;;3.20;99.90;;;7.72;85.98;101607.50;1756151;72;24649;-76
2021/01/13 04:14:56;;;;;;;7.71;2.17;;;3.20;99.90;;;7.70;85.99;101602.67;1758098;72;24583;-77
2021/01/13 04:17:16;;;;;;;7.36;2.42;;;3.20;99.90;;;7.78;85.67;101599.06;1756255;72;24416;-77
2021/01/13 04:19:33;;;;;;;7.67;2.33;;;3.20;99.90;;;7.81;85.52;101594.84;1753620;72;24540;-77
2021/01/13 04:21:52;;;;;;;5.99;2.01;;;3.20;99.90;;;7.78;85.70;101596.47;1749629;72;24462;-77
2021/01/13 04:24:13;;;;;;;6.94;2.04;;;3.30;99.90;;;7.61;86.11;101585.52;1754674;72;25110;-78
2021/01/13 04:26:34;;;;;;;6.64;2.16;;;3.30;99.90;;;7.86;86.26;101587.20;1749636;72;24423;-78
2021/01/13 04:28:51;;;;;;;5.41;2.14;;;3.30;99.90;;;7.89;85.82;101584.31;1749601;72;24395;-78
2021/01/13 04:31:09;;;;;;;8.46;2.03;;;3.40;99.90;;;7.92;85.86;101584.84;1749877;72;24436;-77
2021/01/13 04:33:29;;;;;;;8.26;2.07;;;3.50;99.90;;;7.84;86.27;101597.97;1750657;72;24432;-77
2021/01/13 04:35:46;;;;;;;7.18;2.00;;;3.50;99.90;;;8.06;85.99;101585.73;1750944;72;24413;-77
2021/01/13 04:38:05;;;;;;;6.66;2.01;;;3.60;99.90;;;8.09;85.92;101583.67;1748971;72;24428;-77
2021/01/13 04:40:32;;;;;;;6.52;1.80;;;3.60;99.90;;;8.20;85.87;101581.00;1750639;72;24453;-78
2021/01/13 04:42:55;;;;;;;6.29;2.25;;;3.70;99.90;;;8.29;85.55;101583.91;1752637;72;24467;-77
2021/01/13 04:45:19;;;;;;;7.57;2.07;;;3.70;99.90;;;8.20;85.56;101584.89;1747794;72;24424;-77
2021/01/13 04:47:51;;;;;;;5.41;1.86;;;3.70;99.90;;;8.26;85.25;101586.01;1753527;72;24454;-77
2021/01/13 04:50:15;;;;;;;7.22;2.10;;;3.80;99.90;;;8.28;85.47;101582.16;1748859;72;24436;-77
2021/01/13 04:52:37;;;;;;;7.48;2.49;;;3.80;99.90;;;8.26;85.49;101579.52;1760487;72;24443;-77
2021/01/13 04:54:54;;;;;;;7.76;1.87;;;3.80;99.90;;;8.35;85.94;101577.61;1754676;72;24423;-76
2021/01/13 04:57:55;;;;;;;7.36;1.83;;;3.90;99.90;;;8.32;85.67;101561.55;1749101;72;24408;-76
2021/01/13 05:00:26;;;;;;;6.25;2.40;;;3.90;99.90;;;8.26;85.83;101571.73;1748564;73;24419;-75
2021/01/13 05:03:16;;;;;;;7.07;1.96;;;3.90;99.90;;;8.15;86.11;101565.70;1746682;72;24474;-76
2021/01/13 05:05:37;;;;;;;5.60;1.87;;;3.80;99.90;;;8.25;86.17;101563.91;1747009;72;24448;-76
2021/01/13 05:08:21;;;;;;;6.61;1.81;;;3.80;99.90;;;8.20;86.05;101569.33;1746032;73;24475;-77
2021/01/13 05:10:41;;;;;;;6.86;2.03;;;3.70;99.90;;;8.06;86.37;101574.06;1748376;72;24557;-77
2021/01/13 05:13:00;;;;;;;7.70;2.03;;;3.70;99.90;;;8.05;86.52;101573.61;1749534;73;24407;-77
2021/01/13 05:15:22;;;;;;;6.19;1.74;;;3.60;99.90;;;8.07;86.88;101574.95;1749563;72;25059;-77
2021/01/13 05:17:42;;;;;;;6.57;2.58;;;3.50;99.90;;;8.06;86.67;101577.09;1748631;72;24426;-75
2021/01/13 05:23:04;;;;;;;10.26;2.57;;;3.50;99.90;;;8.12;86.38;101569.50;1709277;74;25260;-76
2021/01/13 05:25:54;;;;;;;10.50;2.91;;;3.40;99.90;;;7.76;87.69;101566.61;1669012;76;24502;-76
2021/01/13 05:28:15;;;;;;;5.60;2.60;;;3.40;99.90;;;7.64;87.35;101567.48;1668502;76;24470;-77
2021/01/13 05:30:35;;;;;;;10.68;3.24;;;3.20;99.90;;;7.65;87.33;101564.05;1679266;76;24421;-76
2021/01/13 05:32:56;;;;;;;13.17;3.60;;;3.10;99.90;;;7.57;87.73;101572.86;1662647;75;24920;-77
2021/01/13 05:35:17;;;;;;;9.03;3.30;;;3.10;99.90;;;7.59;87.49;101566.03;1665382;76;24515;-76
2021/01/13 05:37:47;;;;;;;10.55;3.30;;;3.00;99.90;;;7.65;87.77;101561.45;1683123;76;24513;-75
2021/01/13 05:40:06;;;;;;;9.54;2.94;;;2.90;99.90;;;7.54;87.49;101558.91;1665170;76;24444;-76
2021/01/13 05:42:23;;;;;;;13.56;3.59;;;2.90;99.90;;;7.41;87.20;101564.09;1664470;76;24466;-76
2021/01/13 05:44:41;;;;;;;10.32;3.30;;;2.90;99.90;;;7.60;87.24;101554.83;1664119;76;24428;-76
2021/01/13 05:47:03;;;;;;;10.20;3.51;;;3.00;99.90;;;7.69;87.88;101549.97;1682447;76;24442;-76
2021/01/13 05:49:21;;;;;;;10.94;3.30;;;2.90;99.90;;;7.60;87.46;101549.64;1673672;76;24465;-77
2021/01/13 05:51:39;;;;;;;12.00;3.56;;;2.90;99.90;;;7.65;87.48;101541.61;1671631;76;24507;-76
2021/01/13 05:53:59;;;;;;;9.66;2.90;;;2.90;99.90;;;7.67;87.52;101538.66;1670125;76;24988;-77
2021/01/13 05:56:18;;;;;;;12.90;3.53;;;2.90;99.90;;;7.61;87.35;101549.23;1669443;76;24487;-76
2021/01/13 05:58:36;;;;;;;10.26;3.10;;;2.90;99.90;;;7.72;87.20;101542.70;1668318;76;24913;-75
2021/01/13 06:00:58;;;;;;;16.31;3.60;;;2.90;99.90;;;7.60;87.10;101548.78;1678682;75;24484;-78
2021/01/13 06:03:18;;;;;;;12.06;2.41;;;2.90;99.90;;;7.71;86.90;101536.62;1677937;76;24471;-77
2021/01/13 06:05:38;;;;;;;10.77;2.95;;;3.00;99.90;;;7.63;86.78;101529.00;1664199;76;24463;-77
2021/01/13 06:07:59;;;;;;;10.52;2.91;;;3.00;99.90;;;7.73;86.58;101536.27;1662062;76;24889;-76
2021/01/13 06:10:19;;;;;;;10.39;3.07;;;3.00;99.90;;;7.78;86.46;101532.52;1664522;76;24600;-76
2021/01/13 06:12:39;;;;;;;12.45;3.13;;;3.00;99.90;;;7.62;86.58;101533.73;1669381;75;24437;-76
2021/01/13 06:14:57;;;;;;;8.90;3.05;;;3.00;99.90;;;7.79;86.18;101520.45;1663598;76;24538;-77
2021/01/13 06:17:27;;;;;;;9.66;3.30;;;3.00;99.90;;;7.77;85.84;101532.47;1639046;77;24447;-76
2021/01/13 06:19:49;;;;;;;7.08;3.20;;;3.00;99.90;;;7.66;85.94;101527.84;1635656;78;24471;-76
2021/01/13 06:22:12;;;;;;;10.93;3.26;;;3.10;99.90;;;7.67;86.00;101525.70;1631031;77;24547;-78
2021/01/13 06:24:38;;;;;;;10.30;2.95;;;3.00;99.90;;;7.57;86.36;101519.74;1690109;75;25004;-77
2021/01/13 06:27:01;;;;;;;7.02;2.51;;;3.00;99.90;;;7.59;86.62;101526.27;1678023;75;24911;-76
2021/01/13 06:32:48;;;;;;;6.61;2.27;;;3.00;99.90;;;7.80;85.50;101531.27;1750339;72;25344;-77
2021/01/13 06:35:30;;;;;;;9.84;2.59;;;3.00;99.90;;;7.60;86.24;101530.20;1707889;74;24596;-78
2021/01/13 06:37:59;;;;;;;11.65;2.62;;;3.00;99.90;;;7.64;85.82;101526.90;1711685;73;24440;-77
2021/01/13 06:40:20;;;;;;;9.17;2.91;;;2.90;99.90;;;7.63;85.87;101532.89;1713785;74;24449;-78
2021/01/13 06:42:37;;;;;;;10.21;2.78;;;2.90;99.90;;;7.50;86.14;101534.64;1718729;74;24515;-78
2021/01/13 06:44:53;;;;;;;9.70;2.76;;;2.90;99.90;;;7.51;86.11;101527.72;1712997;73;24460;-79
2021/01/13 06:47:11;;;;;;;9.69;2.80;;;2.80;99.90;;;7.53;86.08;101539.03;1708041;73;24883;-79
2021/01/13 06:49:29;;;;;;;11.46;3.02;;;2.80;99.90;;;7.42;86.21;101532.60;1708423;73;24531;-80
2021/01/13 06:51:57;;;;;;;8.65;2.43;;;2.80;99.90;;;7.44;85.72;101533.14;1705614;74;24476;-77
2021/01/13 06:54:21;;;;;;;13.30;3.21;;;2.80;99.90;;;7.50;85.97;101543.70;1714160;74;24520;-78
2021/01/13 06:56:51;;;;;;;9.33;2.69;;;2.70;99.90;;;7.54;85.48;101546.84;1716834;74;24440;-78
2021/01/13 06:59:14;;;;;;;7.31;2.61;;;2.70;99.90;;;7.41;86.13;101534.30;1719752;74;24463;-78
2021/01/13 07:01:34;;;;;;;7.13;2.12;;;2.70;99.90;;;7.46;85.83;101534.48;1710803;73;24905;-79
2021/01/13 07:04:04;;;;;;;8.36;2.90;;;2.70;99.90;;;7.37;85.72;101525.97;1706087;74;24501;-78
2021/01/13 07:06:20;;;;;;;9.60;2.45;;;2.70;99.90;;;7.55;85.58;101538.27;1710605;74;24489;-82
2021/01/13 07:08:38;;;;;;;9.87;3.15;;;2.60;99.90;;;7.46;85.32;101541.82;1711826;74;24491;-82
2021/01/13 07:11:10;;;;;;;10.66;2.70;;;2.60;99.90;;;7.40;85.21;101539.03;1721025;73;24460;-79
2021/01/13 07:13:27;;;;;;;10.40;2.72;;;2.60;99.90;;;7.41;85.36;101546.40;1734450;73;24445;-83
2021/01/13 07:15:45;;;;;;;10.12;2.80;;;2.50;99.90;;;7.37;85.28;101533.75;1713909;73;24424;-85
2021/01/13 07:18:05;;;;;;;7.63;2.37;;;2.50;99.90;;;7.39;85.37;101542.45;1709965;73;24855;-80
2021/01/13 07:20:22;;;;;;;9.90;2.38;;;2.50;99.90;;;7.41;85.04;101543.37;1733345;73;24427;-82
2021/01/13 07:22:40;;;;;;;8.02;2.79;;;2.50;99.90;;;7.30;84.90;101536.94;1714691;74;24451;-85
2021/01/13 07:24:57;;;;;;;7.65;2.79;;;2.50;99.90;;;7.31;85.21;101546.49;1712568;74;24481;-80
2021/01/13 07:27:16;;;;;;;10.94;2.70;;;2.50;99.90;;;7.33;85.31;101538.77;1710585;74;24400;-80
2021/01/13 07:29:33;;;;;;;8.48;3.01;;;2.50;99.90;;;7.17;85.58;101552.91;1709813;73;24512;-77
2021/01/13 07:31:52;;;;;;;9.02;2.37;;;2.50;99.90;;;7.42;85.35;101536.09;1717424;73;24362;-76
2021/01/13 07:34:16;;;;;;;7.31;2.66;;;2.50;99.90;;;7.37;84.93;101531.56;1710861;74;25080;-80
2021/01/13 07:36:35;;;;;;;12.88;2.83;;;2.60;99.90;;;7.41;84.99;101536.89;1705637;74;24486;-80
2021/01/13 07:38:55;;;;;;;10.52;2.94;;;2.60;99.90;;;7.43;85.17;101532.66;1714709;74;24448;-79
2021/01/13 07:41:13;;;;;;;8.30;2.54;;;2.60;99.90;;;7.49;85.28;101542.36;1711583;73;24509;-77
2021/01/13 07:44:29;;;;;;;8.49;2.54;;;2.70;99.90;;;7.51;85.34;101536.79;1719063;73;24508;-78
2021/01/13 07:47:02;;;;;;;10.86;2.61;;;2.70;99.90;;;7.39;85.05;101542.45;1712717;74;24498;-79
2021/01/13 07:49:25;;;;;;;8.04;2.25;;;2.70;99.90;;;7.53;84.74;101545.50;1711663;74;24503;-79
2021/01/13 07:51:54;;;;;;;10.57;2.45;;;2.70;99.90;;;7.47;84.99;101547.48;1705609;74;24934;-80
2021/01/13 07:54:21;;;;;;;5.95;2.36;;;2.70;99.90;;;7.45;85.15;101546.55;1707642;74;24449;-80
2021/01/13 07:56:46;;;;;;;9.47;2.25;;;2.70;99.90;;;7.56;84.87;101540.42;1703195;73;24990;-82
2021/01/13 07:59:31;;;;;;;14.91;3.18;;;2.70;99.90;;;7.56;84.70;101546.50;1701336;74;25032;-80
2021/01/13 08:03:06;;;;;;;9.30;2.69;;;2.70;99.90;;;7.56;84.73;101546.91;1707650;74;24542;-82
2021/01/13 08:09:25;;;;;;;12.34;2.78;;;2.70;99.90;;;7.69;83.83;101536.13;1813971;70;25345;-83
2021/01/13 08:12:14;;;;;;;10.86;2.64;;;2.70;99.90;;;7.45;85.15;101543.95;1768683;71;24678;-79
2021/01/13 08:15:33;;;;;;;6.83;2.45;;;2.70;99.90;;;7.48;84.98;101553.13;1778056;71;24436;-81
2021/01/13 08:18:49;;;;;;;6.84;2.43;;;2.70;99.90;;;7.35;85.42;101547.48;1777322;71;24432;-80
2021/01/13 08:24:34;;;;;;;9.72;2.91;;;2.70;99.90;;;7.58;84.79;101534.48;1777643;70;32521;-77
2021/01/13 08:27:02;;;;;;;8.67;3.01;;;2.80;99.90;;;7.62;84.92;101545.40;1749969;72;24532;-78
2021/01/13 08:29:50;;;;;;;12.16;3.04;;;2.80;99.90;;;7.54;85.14;101547.25;1732900;73;24427;-81
2021/01/13 08:32:22;;;;;;;11.61;2.72;;;2.90;99.90;;;7.76;85.33;101548.87;1748641;72;25022;-80
2021/01/13 08:34:48;;;;;;;10.54;3.36;;;2.90;99.90;;;7.80;85.19;101549.42;1750663;72;24973;-77
2021/01/13 08:37:09;;;;;;;9.33;2.60;;;3.00;99.90;;;7.69;85.00;101539.61;1738231;73;24509;-78
2021/01/13 08:39:35;;;;;;;6.66;2.39;;;3.00;99.90;;;7.86;84.93;101538.84;1715874;74;24638;-78
2021/01/13 08:42:17;;;;;;;8.27;2.57;;;3.10;99.90;;;7.80;85.25;101547.72;1744326;72;24513;-78
2021/01/13 08:44:41;;;;;;;6.78;2.40;;;3.20;99.90;;;8.09;84.42;101542.17;1726856;73;24492;-78
2021/01/13 08:47:10;;;;;;;10.56;2.78;;;3.20;99.90;;;7.76;86.04;101538.50;1755530;72;24523;-79
2021/01/13 08:49:41;;;;;;;9.49;2.82;;;3.30;99.90;;;7.87;85.38;101526.36;1700897;73;24511;-78
2021/01/13 08:52:23;;;;;;;10.02;2.77;;;3.30;99.90;;;7.98;84.36;101534.06;1735340;73;24494;-79
2021/01/13 08:54:42;;;;;;;9.15;2.87;;;3.40;99.90;;;7.94;85.14;101528.70;1744728;73;24866;-80
2021/01/13 08:57:16;;;;;;;9.50;2.55;;;3.40;99.90;;;8.10;83.75;101525.36;1712089;74;24451;-80
2021/01/13 08:59:51;;;;;;;8.37;2.68;;;3.40;99.90;;;8.17;83.01;101528.59;1737955;73;24869;-78
2021/01/13 09:02:13;;;;;;;6.46;1.95;;;3.50;99.90;;;8.10;83.87;101530.95;1725526;73;24459;-80
2021/01/13 09:04:34;;;;;;;8.39;2.66;;;3.50;99.90;;;8.23;83.48;101527.95;1725052;73;25156;-80
2021/01/13 09:07:05;;;;;;;11.01;2.99;;;3.60;99.90;;;8.22;82.50;101528.77;1727745;73;24494;-81
2021/01/13 09:09:22;;;;;;;10.75;2.98;;;3.60;99.90;;;8.50;81.39;101522.30;1719468;73;24761;-79
2021/01/13 09:11:44;;;;;;;6.97;2.45;;;3.70;99.90;;;8.34;80.96;101536.53;1755741;71;25662;-78
2021/01/13 09:14:30;;;;;;;8.94;2.72;;;3.80;99.90;;;8.40;81.75;101519.84;1749861;72;24871;-84
2021/01/13 09:16:53;;;;;;;6.51;2.62;;;3.80;99.90;;;8.45;82.06;101545.93;1755745;72;24544;-80
2021/01/13 09:19:15;;;;;;;10.79;2.88;;;3.90;99.90;;;8.56;81.46;101538.94;1719952;74;24514;-80
2021/01/13 09:21:40;;;;;;;7.09;2.38;;;4.00;99.90;;;8.61;80.64;101532.17;1733913;72;24497;-80
2021/01/13 09:23:59;;;;;;;6.60;2.45;;;4.00;99.90;;;8.66;80.48;101528.41;1696558;73;24514;-81
2021/01/13 09:26:20;;;;;;;7.91;2.64;;;4.10;99.90;;;8.56;80.42;101544.53;1731848;73;24762;-79
2021/01/13 09:28:42;;;;;;;4.89;2.42;;;4.10;99.90;;;8.68;80.63;101532.79;1721222;73;24456;-81
2021/01/13 09:31:08;;;;;;;11.10;2.97;;;4.20;99.90;;;8.59;79.69;101515.66;1736815;73;24496;-79
2021/01/13 09:33:34;;;;;;;7.36;2.07;;;4.20;99.90;;;8.71;79.10;101517.74;1723239;72;24446;-79
2021/01/13 09:36:01;;;;;;;8.13;2.66;;;4.20;99.90;;;8.52;80.68;101522.80;1727877;73;24520;-81
2021/01/13 09:41:02;;;;;;;9.85;3.08;;;4.30;99.90;;;8.99;80.19;101527.61;1720689;72;25294;-81
2021/01/13 09:43:33;;;;;;;9.16;2.74;;;4.40;99.90;;;8.72;81.04;101519.48;1690545;73;24459;-78
2021/01/13 09:45:51;;;;;;;9.90;2.86;;;4.40;99.90;;;8.88;80.10;101526.88;1699915;73;24588;-79
2021/01/13 09:48:19;;;;;;;6.20;2.76;;;4.50;99.90;;;8.75;80.06;101536.04;1698965;73;24414;-78
2021/01/13 09:50:37;;;;;;;7.62;2.55;;;4.50;99.90;;;8.72;79.42;101524.27;1695721;73;24999;-84
2021/01/13 09:53:04;;;;;;;8.76;2.85;;;4.60;99.90;;;8.98;79.39;101527.17;1690027;73;24494;-77
2021/01/13 09:55:24;;;;;;;8.86;3.08;;;4.60;99.90;;;8.80;80.01;101529.67;1696060;75;24562;-77
2021/01/13 09:57:42;;;;;;;7.15;2.93;;;4.70;99.90;;;8.87;79.65;101531.19;1688706;75;24491;-79
2021/01/13 10:00:26;;;;;;;9.29;3.57;;;4.70;99.90;;;9.06;79.84;101519.58;1698072;73;24545;-82
2021/01/13 10:02:50;;;;;;;13.86;5.17;;;4.80;99.90;;;8.94;79.33;101513.65;1703152;75;24566;-83
2021/01/13 10:05:11;;;;;;;10.00;3.38;;;4.80;99.90;;;8.89;80.75;101523.44;1697295;74;24540;-80
2021/01/13 10:07:36;;;;;;;9.63;2.71;;;4.90;99.90;;;8.98;80.50;101522.38;1698688;74;24415;-80
2021/01/13 10:09:56;;;;;;;9.20;3.72;;;5.00;99.90;;;8.94;81.26;101529.23;1699522;73;25089;-80
2021/01/13 10:12:22;;;;;;;10.01;3.23;;;5.90;99.90;;;8.76;81.71;101530.41;1660306;76;24535;-79
2021/01/13 10:14:45;;;;;;;7.26;3.36;;;6.10;99.90;;;8.76;82.09;101535.19;1694066;73;24958;-77
2021/01/13 10:17:09;;;;;;;7.84;3.12;;;6.80;99.90;;;9.19;80.63;101521.67;1693921;73;24471;-78
2021/01/13 10:19:33;;;;;;;10.03;3.50;;;7.40;99.90;;;9.40;80.83;101533.05;1698706;73;24449;-80
2021/01/13 10:21:55;;;;;;;11.05;3.37;;;7.90;99.90;;;9.37;80.17;101536.47;1675551;75;24774;-82
2021/01/13 10:24:17;;;;;;;8.73;3.15;;;8.40;99.90;;;9.47;82.02;101533.69;1707750;73;24537;-83
2021/01/13 10:26:41;;;;;;;10.21;3.37;;;8.70;99.90;;;9.74;81.66;101530.05;1695713;72;24454;-79
2021/01/13 10:29:05;;;;;;;8.53;3.16;;;9.00;99.90;;;9.74;80.35;101530.45;1661833;75;24501;-79
2021/01/13 10:31:34;;;;;;;7.25;2.98;;;9.20;99.90;;;9.74;80.64;101539.56;1694462;75;24466;-80
2021/01/13 10:33:59;;;;;;;9.62;3.40;;;9.40;99.90;;;9.93;79.78;101539.17;1695596;75;24525;-80
2021/01/13 10:36:42;;;;;;;7.07;3.04;;;9.60;99.90;;;10.05;79.33;101540.34;1691258;73;24526;-82
2021/01/13 10:39:06;;;;;;;9.66;3.74;;;9.80;99.90;;;10.05;83.33;101540.34;1688793;75;24524;-79
2021/01/13 10:41:37;;;;;;;5.64;2.70;;;10.00;99.90;;;10.24;78.26;101537.80;1685654;74;24431;-82
2021/01/13 10:44:02;;;;;;;8.55;3.02;;;10.10;99.90;;;10.33;81.59;101516.77;1686056;73;24521;-80
2021/01/13 10:46:21;;;;;;;7.71;3.51;;;10.30;99.90;;;10.35;76.98;101541.08;1656589;77;24637;-78